createdAt,value
2018-05-18T00:01:57.191Z,10.40
2018-05-18T00:04:24.663Z,10.40
2018-05-18T00:06:52.226Z,10.40
2018-05-18T00:09:19.704Z,10.40
2018-05-18T00:11:47.243Z,10.40
2018-05-18T00:14:14.685Z,10.40
2018-05-18T00:16:42.137Z,10.30
2018-05-18T00:19:09.725Z,10.30
2018-05-18T00:21:37.382Z,10.30
2018-05-18T00:24:04.905Z,10.40
2018-05-18T00:26:32.484Z,10.30
2018-05-18T00:29:00.030Z,10.30
2018-05-18T00:31:28.100Z,10.30
2018-05-18T00:33:55.555Z,10.30
2018-05-18T00:36:23.013Z,10.30
2018-05-18T00:38:50.628Z,10.30
2018-05-18T00:41:18.103Z,10.30
2018-05-18T00:43:45.715Z,10.30
2018-05-18T00:46:13.175Z,10.30
2018-05-18T00:48:40.634Z,10.30
2018-05-18T00:51:09.736Z,10.30
2018-05-18T00:53:37.191Z,10.30
2018-05-18T00:56:04.857Z,10.30
2018-05-18T00:58:32.434Z,10.30
2018-05-18T01:00:59.835Z,10.30
2018-05-18T01:03:27.294Z,10.20
2018-05-18T01:05:54.762Z,10.20
2018-05-18T01:08:22.540Z,10.20
2018-05-18T01:10:50.006Z,10.20
2018-05-18T01:13:17.539Z,10.20
2018-05-18T01:15:45.123Z,10.30
2018-05-18T01:18:12.650Z,10.20
2018-05-18T01:20:40.117Z,10.20
2018-05-18T01:23:07.574Z,10.30
2018-05-18T01:25:35.123Z,10.30
2018-05-18T01:28:02.674Z,10.30
2018-05-18T01:30:30.213Z,10.30
2018-05-18T01:32:57.776Z,10.30
2018-05-18T01:35:25.360Z,10.30
2018-05-18T01:37:52.901Z,10.30
2018-05-18T01:40:20.499Z,10.30
2018-05-18T01:42:48.167Z,10.30
2018-05-18T01:45:15.615Z,10.30
2018-05-18T01:47:43.879Z,10.40
2018-05-18T01:50:11.330Z,10.40
2018-05-18T01:52:39.035Z,10.30
2018-05-18T01:55:06.484Z,10.30
2018-05-18T01:57:33.995Z,10.30
2018-05-18T02:00:01.648Z,10.30
2018-05-18T02:02:29.118Z,10.30
2018-05-18T02:04:56.675Z,10.20
2018-05-18T02:07:24.342Z,10.20
2018-05-18T02:09:51.809Z,10.30
2018-05-18T02:12:19.336Z,10.30
2018-05-18T02:14:46.780Z,10.30
2018-05-18T02:17:14.248Z,10.30
2018-05-18T02:19:41.772Z,10.30
2018-05-18T02:22:09.297Z,10.30
2018-05-18T02:24:36.963Z,10.30
2018-05-18T02:27:05.909Z,10.30
2018-05-18T02:29:33.453Z,10.30
2018-05-18T02:32:01.038Z,10.30
2018-05-18T02:34:28.505Z,10.30
2018-05-18T02:36:55.967Z,10.30
2018-05-18T02:39:23.525Z,10.40
2018-05-18T02:41:51.192Z,10.30
2018-05-18T02:44:18.872Z,10.40
2018-05-18T02:46:47.832Z,10.40
2018-05-18T02:49:15.348Z,10.40
2018-05-18T02:51:42.798Z,10.40
2018-05-18T02:54:10.334Z,10.40
2018-05-18T02:56:37.803Z,10.30
2018-05-18T02:59:05.422Z,10.30
2018-05-18T03:01:33.103Z,10.30
2018-05-18T03:04:00.757Z,10.30
2018-05-18T03:06:28.207Z,10.30
2018-05-18T03:08:55.739Z,10.30
2018-05-18T03:11:23.313Z,10.30
2018-05-18T03:13:50.845Z,10.30
2018-05-18T03:16:18.301Z,10.30
2018-05-18T03:18:45.860Z,10.30
2018-05-18T03:21:13.363Z,10.20
2018-05-18T03:23:41.017Z,10.20
2018-05-18T03:26:08.681Z,10.20
2018-05-18T03:28:36.197Z,10.20
2018-05-18T03:31:03.794Z,10.20
2018-05-18T03:33:31.236Z,10.30
2018-05-18T03:35:58.780Z,10.30
2018-05-18T03:38:26.250Z,10.30
2018-05-18T03:40:53.763Z,10.30
2018-05-18T03:43:21.279Z,10.30
2018-05-18T03:45:48.976Z,10.30
2018-05-18T03:48:16.413Z,10.30
2018-05-18T03:50:43.923Z,10.30
2018-05-18T03:53:11.497Z,10.30
2018-05-18T03:55:38.940Z,10.30
2018-05-18T03:58:06.635Z,10.30
2018-05-18T04:00:35.585Z,10.30
2018-05-18T04:03:15.459Z,10.30
2018-05-18T04:08:53.537Z,10.30
2018-05-18T04:11:21.853Z,10.30
2018-05-18T04:13:49.536Z,10.30
2018-05-18T04:16:17.071Z,10.30
2018-05-18T04:18:44.651Z,10.30
2018-05-18T04:21:12.164Z,10.40
2018-05-18T04:23:39.751Z,10.40
2018-05-18T04:26:07.203Z,10.30
2018-05-18T04:28:34.674Z,10.30
2018-05-18T04:31:04.924Z,10.30
2018-05-18T04:33:32.847Z,10.30
2018-05-18T04:36:00.515Z,10.30
2018-05-18T04:38:28.003Z,10.30
2018-05-18T04:40:55.444Z,10.30
2018-05-18T04:43:24.398Z,10.30
2018-05-18T04:45:51.848Z,10.30
2018-05-18T04:48:19.392Z,10.30
2018-05-18T04:50:46.916Z,10.20
2018-05-18T04:53:15.871Z,10.30
2018-05-18T04:55:43.449Z,10.30
2018-05-18T04:58:11.101Z,10.30
2018-05-18T05:00:38.690Z,10.30
2018-05-18T05:03:06.091Z,10.30
2018-05-18T05:05:33.637Z,10.40
2018-05-18T05:08:01.031Z,10.40
2018-05-18T05:10:28.537Z,10.40
2018-05-18T05:12:56.870Z,10.30
2018-05-18T05:15:24.343Z,10.20
2018-05-18T05:17:51.952Z,10.20
2018-05-18T05:20:19.456Z,10.20
2018-05-18T05:22:47.111Z,10.20
2018-05-18T05:25:14.631Z,10.20
2018-05-18T05:27:42.223Z,10.20
2018-05-18T05:30:09.892Z,10.20
2018-05-18T05:32:37.354Z,10.30
2018-05-18T05:35:04.815Z,10.30
2018-05-18T05:37:33.043Z,10.20
2018-05-18T05:40:00.526Z,10.20
2018-05-18T05:42:28.190Z,10.30
2018-05-18T05:44:55.731Z,10.30
2018-05-18T05:47:23.191Z,10.30
2018-05-18T05:49:50.768Z,10.20
2018-05-18T05:52:18.231Z,10.20
2018-05-18T05:54:46.514Z,10.30
2018-05-18T05:57:14.038Z,10.30
2018-05-18T05:59:41.814Z,10.40
2018-05-18T06:02:09.480Z,10.40
2018-05-18T06:04:37.144Z,10.50
2018-05-18T06:07:04.784Z,10.50
2018-05-18T06:09:32.338Z,10.40
2018-05-18T06:11:59.901Z,10.30
2018-05-18T06:14:27.451Z,10.30
2018-05-18T06:16:54.913Z,10.40
2018-05-18T06:19:22.700Z,10.40
2018-05-18T06:21:50.234Z,10.50
2018-05-18T06:24:17.683Z,10.60
2018-05-18T06:26:45.156Z,10.70
2018-05-18T06:29:12.726Z,10.90
2018-05-18T06:31:40.389Z,10.90
2018-05-18T06:34:07.906Z,10.90
2018-05-18T06:36:35.498Z,10.80
2018-05-18T06:39:02.986Z,10.70
2018-05-18T06:41:30.480Z,10.70
2018-05-18T06:43:57.932Z,10.60
2018-05-18T06:46:25.394Z,10.60
2018-05-18T06:48:53.189Z,10.60
2018-05-18T06:51:20.726Z,10.60
2018-05-18T06:53:48.192Z,10.70
2018-05-18T06:56:15.637Z,10.70
2018-05-18T06:58:43.272Z,10.70
2018-05-18T07:01:10.676Z,10.80
2018-05-18T07:03:39.642Z,10.90
2018-05-18T07:06:07.217Z,10.90
2018-05-18T07:08:34.748Z,10.90
2018-05-18T07:11:02.223Z,11.00
2018-05-18T07:13:29.804Z,11.10
2018-05-18T07:15:57.268Z,11.10
2018-05-18T07:18:25.477Z,11.10
2018-05-18T07:20:53.071Z,11.10
2018-05-18T07:23:20.518Z,11.20
2018-05-18T07:25:47.979Z,11.30
2018-05-18T07:28:15.638Z,11.20
2018-05-18T07:30:43.083Z,11.20
2018-05-18T07:33:10.529Z,11.30
2018-05-18T07:35:37.991Z,11.20
2018-05-18T07:38:05.447Z,11.30
2018-05-18T07:40:33.031Z,11.30
2018-05-18T07:43:00.484Z,11.30
2018-05-18T07:45:27.948Z,11.30
2018-05-18T07:47:55.410Z,11.40
2018-05-18T07:50:22.882Z,11.40
2018-05-18T07:52:51.159Z,11.40
2018-05-18T07:55:18.618Z,11.40
2018-05-18T07:57:47.561Z,11.40
2018-05-18T08:00:15.164Z,11.40
2018-05-18T08:02:43.417Z,11.50
2018-05-18T08:05:10.955Z,11.50
2018-05-18T08:07:38.544Z,11.50
2018-05-18T08:10:07.170Z,11.40
2018-05-18T08:12:34.877Z,11.40
2018-05-18T08:15:02.435Z,11.40
2018-05-18T08:17:29.895Z,11.40
2018-05-18T08:19:57.657Z,11.50
2018-05-18T08:22:25.210Z,11.50
2018-05-18T08:24:52.653Z,11.50
2018-05-18T08:27:23.002Z,11.60
2018-05-18T08:29:50.564Z,11.70
2018-05-18T08:32:18.084Z,11.60
2018-05-18T08:34:45.546Z,11.70
2018-05-18T08:37:13.135Z,11.60
2018-05-18T08:39:41.479Z,11.50
2018-05-18T08:42:09.491Z,11.50
2018-05-18T08:44:37.003Z,11.60
2018-05-18T08:47:05.200Z,11.50
2018-05-18T08:49:32.670Z,11.60
2018-05-18T08:52:00.340Z,11.70
2018-05-18T08:54:27.883Z,11.70
2018-05-18T08:56:55.455Z,11.80
2018-05-18T08:59:22.920Z,12.00
2018-05-18T09:01:50.387Z,12.00
2018-05-18T09:04:17.891Z,12.20
2018-05-18T09:06:45.550Z,12.20
2018-05-18T09:09:13.090Z,12.20
2018-05-18T09:11:40.600Z,12.10
2018-05-18T09:14:08.252Z,12.10
2018-05-18T09:16:35.782Z,12.20
2018-05-18T09:19:03.314Z,12.20
2018-05-18T09:21:30.824Z,12.20
2018-05-18T09:23:58.490Z,12.20
2018-05-18T09:26:26.179Z,12.30
2018-05-18T09:28:53.820Z,12.20
2018-05-18T09:31:21.266Z,12.20
2018-05-18T09:33:48.775Z,12.40
2018-05-18T09:36:16.204Z,12.40
2018-05-18T09:38:43.709Z,12.50
2018-05-18T09:41:11.156Z,12.60
2018-05-18T09:43:38.742Z,12.60
2018-05-18T09:46:06.211Z,12.60
2018-05-18T09:48:33.728Z,12.60
2018-05-18T09:51:01.198Z,12.50
2018-05-18T09:53:28.638Z,12.40
2018-05-18T09:55:56.096Z,12.40
2018-05-18T09:58:23.669Z,12.30
2018-05-18T10:00:51.243Z,12.30
2018-05-18T10:03:18.820Z,12.20
2018-05-18T10:05:46.281Z,12.20
2018-05-18T10:08:14.544Z,12.20
2018-05-18T10:10:42.067Z,12.30
2018-05-18T10:13:09.526Z,12.30
2018-05-18T10:15:36.967Z,12.40
2018-05-18T10:18:04.416Z,12.40
2018-05-18T10:20:31.969Z,12.40
2018-05-18T10:22:59.571Z,12.40
2018-05-18T10:25:27.033Z,12.40
2018-05-18T10:27:54.473Z,12.40
2018-05-18T10:30:28.943Z,12.40
2018-05-18T10:32:57.166Z,12.30
2018-05-18T10:35:24.653Z,12.30
2018-05-18T10:37:52.253Z,12.30
2018-05-18T10:40:20.133Z,12.30
2018-05-18T10:42:47.614Z,12.40
2018-05-18T10:45:15.395Z,12.40
2018-05-18T10:47:43.540Z,12.50
2018-05-18T10:50:11.239Z,12.50
2018-05-18T10:52:39.724Z,12.50
2018-05-18T10:55:07.208Z,12.50
2018-05-18T10:57:35.408Z,12.70
2018-05-18T11:00:03.574Z,12.70
2018-05-18T11:02:31.163Z,12.80
2018-05-18T11:04:58.731Z,12.60
2018-05-18T11:07:26.184Z,12.50
2018-05-18T11:09:53.854Z,12.60
2018-05-18T11:12:21.489Z,12.70
2018-05-18T11:14:49.084Z,12.70
2018-05-18T11:17:16.633Z,12.80
2018-05-18T11:19:44.317Z,12.90
2018-05-18T11:22:12.438Z,12.90
2018-05-18T11:24:39.877Z,13.10
2018-05-18T11:27:07.341Z,13.00
2018-05-18T11:29:35.192Z,13.10
2018-05-18T11:32:02.705Z,13.10
2018-05-18T11:34:30.460Z,13.20
2018-05-18T11:36:57.979Z,13.30
2018-05-18T11:39:25.578Z,13.20
2018-05-18T11:41:53.040Z,13.20
2018-05-18T11:44:20.480Z,13.20
2018-05-18T11:46:48.090Z,13.20
2018-05-18T11:49:15.551Z,13.30
2018-05-18T11:51:43.114Z,13.40
2018-05-18T11:54:11.337Z,13.50
2018-05-18T11:56:39.417Z,13.50
2018-05-18T11:59:07.053Z,13.40
2018-05-18T12:01:34.532Z,13.40
2018-05-18T12:04:02.795Z,13.30
2018-05-18T12:06:30.249Z,13.30
2018-05-18T12:08:57.689Z,13.40
2018-05-18T12:11:25.165Z,13.60
2018-05-18T12:13:53.098Z,13.60
2018-05-18T12:16:20.551Z,13.60
2018-05-18T12:18:48.147Z,13.60
2018-05-18T12:21:15.629Z,13.70
2018-05-18T12:23:43.070Z,13.50
2018-05-18T12:26:11.358Z,13.30
2018-05-18T12:28:38.735Z,13.30
2018-05-18T12:31:06.452Z,13.40
2018-05-18T12:33:34.115Z,13.50
2018-05-18T12:36:01.641Z,13.40
2018-05-18T12:38:29.493Z,13.40
2018-05-18T12:40:56.959Z,13.60
2018-05-18T12:43:24.463Z,13.70
2018-05-18T12:45:52.053Z,13.70
2018-05-18T12:48:19.801Z,13.60
2018-05-18T12:50:48.152Z,13.50
2018-05-18T12:53:15.807Z,13.50
2018-05-18T12:55:43.530Z,13.40
2018-05-18T12:58:11.328Z,13.30
2018-05-18T13:00:38.832Z,13.30
2018-05-18T13:03:06.311Z,13.40
2018-05-18T13:05:33.771Z,13.50
2018-05-18T13:08:01.368Z,13.60
2018-05-18T13:10:28.891Z,13.70
2018-05-18T13:12:56.594Z,13.70
2018-05-18T13:15:24.336Z,13.70
2018-05-18T13:17:51.922Z,13.80
2018-05-18T13:20:19.942Z,13.80
2018-05-18T13:22:47.538Z,13.80
2018-05-18T13:25:15.058Z,13.60
2018-05-18T13:27:42.592Z,13.60
2018-05-18T13:30:10.682Z,13.70
2018-05-18T13:32:38.169Z,13.70
2018-05-18T13:35:05.946Z,13.80
2018-05-18T13:37:33.570Z,13.80
2018-05-18T13:40:01.175Z,13.80
2018-05-18T13:42:30.147Z,13.70
2018-05-18T13:44:57.692Z,13.70
2018-05-18T13:47:25.056Z,13.80
2018-05-18T13:49:52.620Z,13.80
2018-05-18T13:52:20.294Z,13.80
2018-05-18T13:54:47.950Z,13.90
2018-05-18T13:57:15.869Z,13.90
2018-05-18T13:59:43.471Z,13.90
2018-05-18T14:02:10.988Z,14.00
2018-05-18T14:04:38.475Z,14.00
2018-05-18T14:07:05.946Z,14.00
2018-05-18T14:09:34.470Z,14.00
2018-05-18T14:12:04.506Z,14.00
2018-05-18T14:14:32.134Z,14.00
2018-05-18T14:16:59.637Z,13.90
2018-05-18T14:19:27.246Z,13.90
2018-05-18T14:21:56.639Z,13.80
2018-05-18T14:24:25.594Z,13.70
2018-05-18T14:26:53.743Z,13.70
2018-05-18T14:29:21.285Z,13.60
2018-05-18T14:31:48.855Z,13.60
2018-05-18T14:34:16.349Z,13.60
2018-05-18T14:36:43.915Z,13.50
2018-05-18T14:39:11.378Z,13.40
2018-05-18T14:41:39.026Z,13.50
2018-05-18T14:44:06.685Z,13.40
2018-05-18T14:46:34.337Z,13.40
2018-05-18T14:49:01.902Z,13.50
2018-05-18T14:51:29.377Z,13.50
2018-05-18T14:53:57.118Z,13.40
2018-05-18T14:56:24.753Z,13.50
2018-05-18T14:58:52.240Z,13.50
2018-05-18T15:01:19.720Z,13.50
2018-05-18T15:03:47.358Z,13.40
2018-05-18T15:06:15.225Z,13.40
2018-05-18T15:08:42.760Z,13.30
2018-05-18T15:11:10.400Z,13.40
2018-05-18T15:13:37.845Z,13.30
2018-05-18T15:16:05.330Z,13.10
2018-05-18T15:18:32.923Z,13.00
2018-05-18T15:21:01.879Z,13.10
2018-05-18T15:23:30.356Z,13.00
2018-05-18T15:25:57.929Z,13.00
2018-05-18T15:28:25.455Z,13.00
2018-05-18T15:30:53.048Z,13.10
2018-05-18T15:33:20.522Z,13.00
2018-05-18T15:35:47.996Z,13.00
2018-05-18T15:38:15.496Z,12.90
2018-05-18T15:40:43.001Z,12.90
2018-05-18T15:43:10.442Z,12.80
2018-05-18T15:45:37.901Z,12.90
2018-05-18T15:48:05.365Z,12.80
2018-05-18T15:50:32.920Z,12.80
2018-05-18T15:53:00.498Z,12.80
2018-05-18T15:55:27.963Z,12.80
2018-05-18T15:57:56.298Z,13.00
2018-05-18T16:00:23.975Z,13.00
2018-05-18T16:02:51.420Z,13.10
2018-05-18T16:05:18.937Z,13.00
2018-05-18T16:07:46.355Z,13.00
2018-05-18T16:10:15.926Z,13.10
2018-05-18T16:12:43.511Z,13.00
2018-05-18T16:15:10.970Z,12.90
2018-05-18T16:17:38.615Z,13.00
2018-05-18T16:20:06.273Z,12.90
2018-05-18T16:22:33.951Z,13.00
2018-05-18T16:25:01.485Z,13.00
2018-05-18T16:27:29.059Z,13.00
2018-05-18T16:29:56.704Z,13.00
2018-05-18T16:32:24.382Z,13.00
2018-05-18T16:34:52.036Z,13.00
2018-05-18T16:37:19.704Z,12.90
2018-05-18T16:39:47.183Z,12.90
2018-05-18T16:42:14.852Z,12.90
2018-05-18T16:44:42.689Z,12.90
2018-05-18T16:47:11.179Z,12.90
2018-05-18T16:49:40.329Z,12.80
2018-05-18T16:52:07.792Z,12.80
2018-05-18T16:54:35.471Z,12.70
2018-05-18T16:57:03.678Z,12.60
2018-05-18T16:59:32.492Z,12.50
2018-05-18T17:02:00.831Z,12.40
2018-05-18T17:04:28.522Z,12.40
2018-05-18T17:06:58.709Z,12.50
2018-05-18T17:09:26.387Z,12.50
2018-05-18T17:11:54.599Z,12.60
2018-05-18T17:14:22.673Z,12.60
2018-05-18T17:16:51.779Z,12.60
2018-05-18T17:19:19.419Z,12.60
2018-05-18T17:21:46.912Z,12.60
2018-05-18T17:24:14.585Z,12.60
2018-05-18T17:26:42.200Z,12.60
2018-05-18T17:29:09.803Z,12.60
2018-05-18T17:31:37.268Z,12.60
2018-05-18T17:34:04.727Z,12.50
2018-05-18T17:36:32.375Z,12.40
2018-05-18T17:39:00.720Z,12.40
2018-05-18T17:41:35.352Z,12.40
2018-05-18T17:44:04.141Z,12.40
2018-05-18T17:46:31.625Z,12.30
2018-05-18T17:49:00.242Z,12.30
2018-05-18T17:51:30.213Z,12.20
2018-05-18T17:53:58.377Z,12.10
2018-05-18T17:56:25.974Z,12.10
2018-05-18T17:58:53.612Z,12.00
2018-05-18T18:01:21.229Z,12.00
2018-05-18T18:03:48.714Z,12.10
2018-05-18T18:06:16.347Z,12.00
2018-05-18T18:08:45.185Z,12.00
2018-05-18T18:11:12.995Z,12.00
2018-05-18T18:13:40.594Z,12.10
2018-05-18T18:16:09.175Z,12.00
2018-05-18T18:18:37.836Z,12.00
2018-05-18T18:21:06.275Z,11.90
2018-05-18T18:23:33.880Z,11.90
2018-05-18T18:26:01.372Z,11.90
2018-05-18T18:28:29.037Z,11.90
2018-05-18T18:30:57.315Z,11.90
2018-05-18T18:33:25.023Z,11.90
2018-05-18T18:35:53.466Z,11.80
2018-05-18T18:38:21.100Z,11.80
2018-05-18T18:40:48.925Z,11.80
2018-05-18T18:43:17.905Z,11.80
2018-05-18T18:45:45.453Z,11.80
2018-05-18T18:48:13.087Z,11.80
2018-05-18T18:50:42.526Z,11.60
2018-05-18T18:53:12.062Z,11.50
2018-05-18T18:55:42.177Z,11.50
2018-05-18T18:58:09.947Z,11.50
2018-05-18T19:00:37.709Z,11.50
2018-05-18T19:03:05.328Z,11.50
2018-05-18T19:05:32.767Z,11.60
2018-05-18T19:08:00.406Z,11.50
2018-05-18T19:10:28.650Z,11.40
2018-05-18T19:12:56.090Z,11.30
2018-05-18T19:15:23.680Z,11.30
2018-05-18T19:17:51.062Z,11.20
2018-05-18T19:20:18.710Z,11.20
2018-05-18T19:22:46.172Z,11.10
2018-05-18T19:25:13.640Z,11.20
2018-05-18T19:27:41.156Z,11.10
2018-05-18T19:30:08.668Z,11.20
2018-05-18T19:32:36.983Z,11.10
2018-05-18T19:35:04.466Z,11.10
2018-05-18T19:37:32.245Z,11.10
2018-05-18T19:39:59.832Z,11.00
2018-05-18T19:42:28.350Z,11.10
2018-05-18T19:44:55.839Z,11.10
2018-05-18T19:47:23.549Z,11.20
2018-05-18T19:49:51.140Z,11.20
2018-05-18T19:52:18.572Z,11.10
2018-05-18T19:54:46.144Z,11.20
2018-05-18T19:57:13.755Z,11.10
2018-05-18T19:59:41.314Z,11.20
2018-05-18T20:02:09.244Z,11.20
2018-05-18T20:04:36.883Z,11.10
2018-05-18T20:07:04.450Z,11.10
2018-05-18T20:09:32.128Z,11.10
2018-05-18T20:11:59.797Z,11.10
2018-05-18T20:14:27.220Z,11.00
2018-05-18T20:16:54.897Z,11.10
2018-05-18T20:19:22.591Z,11.10
2018-05-18T20:21:50.118Z,11.10
2018-05-18T20:24:18.364Z,11.10
2018-05-18T20:26:45.980Z,11.10
2018-05-18T20:29:14.608Z,11.10
2018-05-18T20:31:42.333Z,11.10
2018-05-18T20:34:09.787Z,11.10
2018-05-18T20:36:37.237Z,11.10
2018-05-18T20:39:05.689Z,11.00
2018-05-18T20:41:33.363Z,11.00
2018-05-18T20:44:01.022Z,11.00
2018-05-18T20:46:28.687Z,11.00
2018-05-18T20:48:57.987Z,11.00
2018-05-18T20:51:25.657Z,11.00
2018-05-18T20:53:53.164Z,11.10
2018-05-18T20:56:20.749Z,11.10
2018-05-18T20:58:48.202Z,11.10
2018-05-18T21:01:15.764Z,11.10
2018-05-18T21:03:43.315Z,11.00
2018-05-18T21:06:10.778Z,11.00
2018-05-18T21:08:38.229Z,10.90
2018-05-18T21:11:05.888Z,10.90
2018-05-18T21:13:33.337Z,10.90
2018-05-18T21:16:00.809Z,10.90
2018-05-18T21:18:28.439Z,11.00
2018-05-18T21:20:55.800Z,11.00
2018-05-18T21:23:23.397Z,11.00
2018-05-18T21:25:51.042Z,11.00
2018-05-18T21:28:19.524Z,11.10
2018-05-18T21:30:47.110Z,11.00
2018-05-18T21:33:15.464Z,11.00
2018-05-18T21:35:42.940Z,11.00
2018-05-18T21:38:11.225Z,11.10
2018-05-18T21:40:38.864Z,11.10
2018-05-18T21:43:06.539Z,11.00
2018-05-18T21:45:34.024Z,10.90
2018-05-18T21:48:01.632Z,10.90
2018-05-18T21:50:29.099Z,10.90
2018-05-18T21:52:56.555Z,10.90
2018-05-18T21:55:23.992Z,10.90
2018-05-18T21:57:51.551Z,10.80
2018-05-18T22:00:19.102Z,10.90
2018-05-18T22:02:46.583Z,10.90
2018-05-18T22:05:14.051Z,10.90
2018-05-18T22:07:41.504Z,10.80
2018-05-18T22:10:08.939Z,10.90
2018-05-18T22:12:36.469Z,10.90
2018-05-18T22:15:03.952Z,10.90
2018-05-18T22:17:31.393Z,10.90
2018-05-18T22:19:58.913Z,11.00
2018-05-18T22:22:27.143Z,10.90
2018-05-18T22:24:54.607Z,10.90
2018-05-18T22:27:22.066Z,11.00
2018-05-18T22:29:49.571Z,10.90
2018-05-18T22:32:17.027Z,10.80
2018-05-18T22:34:44.535Z,10.70
2018-05-18T22:37:12.007Z,10.70
2018-05-18T22:39:39.462Z,10.80
2018-05-18T22:42:07.107Z,10.90
2018-05-18T22:44:34.561Z,10.90
2018-05-18T22:47:02.217Z,10.90
2018-05-18T22:49:29.754Z,11.00
2018-05-18T22:51:57.193Z,10.90
2018-05-18T22:54:24.660Z,11.00
2018-05-18T22:56:52.111Z,11.00
2018-05-18T22:59:19.656Z,11.10
2018-05-18T23:01:47.113Z,11.00
2018-05-18T23:04:14.839Z,11.00
2018-05-18T23:06:42.481Z,11.00
2018-05-18T23:09:09.968Z,10.90
2018-05-18T23:11:38.178Z,10.90
2018-05-18T23:14:05.884Z,10.90
2018-05-18T23:16:33.406Z,10.90
2018-05-18T23:19:00.980Z,10.90
2018-05-18T23:21:28.644Z,11.00
2018-05-18T23:23:56.200Z,11.00
2018-05-18T23:26:23.641Z,11.00
2018-05-18T23:28:51.167Z,11.00
2018-05-18T23:31:19.503Z,11.00
2018-05-18T23:33:47.168Z,11.00
2018-05-18T23:36:14.631Z,11.10
2018-05-18T23:38:42.268Z,11.10
2018-05-18T23:41:09.826Z,11.10
2018-05-18T23:43:37.402Z,11.10
2018-05-18T23:46:04.866Z,11.00
2018-05-18T23:48:32.514Z,11.10
2018-05-18T23:50:59.979Z,11.10
2018-05-18T23:53:27.425Z,11.10
2018-05-18T23:55:55.074Z,11.10
2018-05-18T23:58:22.596Z,11.10
